sensor_id;sensor_type;location;lat;lon;timestamp;temperature;humidity
10583;DHT22;33679;51.218;6.786;2023-08-06T00:00:33;20.50;99.90
10583;DHT22;33679;51.218;6.786;2023-08-06T00:03:07;20.50;99.90
10583;DHT22;33679;51.218;6.786;2023-08-06T00:05:41;20.50;99.90
10583;DHT22;33679;51.218;6.786;2023-08-06T00:08:15;20.50;99.90
10583;DHT22;33679;51.218;6.786;2023-08-06T00:10:47;20.50;99.90
10583;DHT22;33679;51.218;6.786;2023-08-06T00:13:20;20.50;99.90
10583;DHT22;33679;51.218;6.786;2023-08-06T00:15:53;20.50;99.90
10583;DHT22;33679;51.218;6.786;2023-08-06T00:18:26;20.50;99.90
10583;DHT22;33679;51.218;6.786;2023-08-06T00:20:59;20.60;99.90
10583;DHT22;33679;51.218;6.786;2023-08-06T00:23:31;20.60;99.90
10583;DHT22;33679;51.218;6.786;2023-08-06T00:26:04;20.50;99.90
10583;DHT22;33679;51.218;6.786;2023-08-06T00:28:36;20.50;99.90
10583;DHT22;33679;51.218;6.786;2023-08-06T00:31:08;20.40;99.90
10583;DHT22;33679;51.218;6.786;2023-08-06T00:33:42;20.30;99.90
10583;DHT22;33679;51.218;6.786;2023-08-06T00:36:16;20.20;99.90
10583;DHT22;33679;51.218;6.786;2023-08-06T00:38:49;20.20;99.90
10583;DHT22;33679;51.218;6.786;2023-08-06T00:41:23;20.10;99.90
10583;DHT22;33679;51.218;6.786;2023-08-06T00:43:56;20.10;99.90
10583;DHT22;33679;51.218;6.786;2023-08-06T00:46:28;20.10;99.90
10583;DHT22;33679;51.218;6.786;2023-08-06T00:49:05;20.10;99.90
10583;DHT22;33679;51.218;6.786;2023-08-06T00:51:39;20.10;99.90
10583;DHT22;33679;51.218;6.786;2023-08-06T00:54:12;20.20;99.90
10583;DHT22;33679;51.218;6.786;2023-08-06T00:56:45;20.20;99.90
10583;DHT22;33679;51.218;6.786;2023-08-06T00:59:19;20.20;99.90
10583;DHT22;33679;51.218;6.786;2023-08-06T01:01:51;20.20;99.90
10583;DHT22;33679;51.218;6.786;2023-08-06T01:04:26;20.20;99.90
10583;DHT22;33679;51.218;6.786;2023-08-06T01:07:04;20.30;99.90
10583;DHT22;33679;51.218;6.786;2023-08-06T01:09:45;20.30;99.90
10583;DHT22;33679;51.218;6.786;2023-08-06T01:12:29;20.30;99.90
10583;DHT22;33679;51.218;6.786;2023-08-06T01:15:07;20.30;99.90
10583;DHT22;33679;51.218;6.786;2023-08-06T01:17:41;20.30;99.90
10583;DHT22;33679;51.218;6.786;2023-08-06T01:20:15;20.30;99.90
10583;DHT22;33679;51.218;6.786;2023-08-06T01:22:51;20.30;99.90
10583;DHT22;33679;51.218;6.786;2023-08-06T01:25:29;20.30;99.90
10583;DHT22;33679;51.218;6.786;2023-08-06T01:28:09;20.30;99.90
10583;DHT22;33679;51.218;6.786;2023-08-06T01:30:43;20.30;99.90
10583;DHT22;33679;51.218;6.786;2023-08-06T01:33:19;20.20;99.90
10583;DHT22;33679;51.218;6.786;2023-08-06T01:35:54;20.20;99.90
10583;DHT22;33679;51.218;6.786;2023-08-06T01:38:30;20.20;99.90
10583;DHT22;33679;51.218;6.786;2023-08-06T01:41:07;20.20;99.90
10583;DHT22;33679;51.218;6.786;2023-08-06T01:43:39;20.20;99.90
10583;DHT22;33679;51.218;6.786;2023-08-06T01:46:12;20.20;99.90
10583;DHT22;33679;51.218;6.786;2023-08-06T01:48:45;20.10;99.90
10583;DHT22;33679;51.218;6.786;2023-08-06T01:51:17;20.10;99.90
10583;DHT22;33679;51.218;6.786;2023-08-06T01:53:51;20.10;99.90
10583;DHT22;33679;51.218;6.786;2023-08-06T01:56:23;20.10;99.90
10583;DHT22;33679;51.218;6.786;2023-08-06T01:58:56;20.10;99.90
10583;DHT22;33679;51.218;6.786;2023-08-06T02:01:28;20.10;99.90
10583;DHT22;33679;51.218;6.786;2023-08-06T02:04:00;20.10;99.90
10583;DHT22;33679;51.218;6.786;2023-08-06T02:06:33;20.10;99.90
10583;DHT22;33679;51.218;6.786;2023-08-06T02:09:07;20.10;99.90
10583;DHT22;33679;51.218;6.786;2023-08-06T02:11:40;20.10;99.90
10583;DHT22;33679;51.218;6.786;2023-08-06T02:14:13;20.10;99.90
10583;DHT22;33679;51.218;6.786;2023-08-06T02:16:45;20.10;99.90
10583;DHT22;33679;51.218;6.786;2023-08-06T02:19:17;20.10;99.90
10583;DHT22;33679;51.218;6.786;2023-08-06T02:21:51;20.20;99.90
10583;DHT22;33679;51.218;6.786;2023-08-06T02:24:24;20.20;99.90
10583;DHT22;33679;51.218;6.786;2023-08-06T02:26:59;20.20;99.90
10583;DHT22;33679;51.218;6.786;2023-08-06T02:29:31;20.20;99.90
10583;DHT22;33679;51.218;6.786;2023-08-06T02:32:09;20.30;99.90
10583;DHT22;33679;51.218;6.786;2023-08-06T02:34:45;20.30;99.90
10583;DHT22;33679;51.218;6.786;2023-08-06T02:37:18;20.30;99.90
10583;DHT22;33679;51.218;6.786;2023-08-06T02:39:52;20.30;99.90
10583;DHT22;33679;51.218;6.786;2023-08-06T02:42:26;20.30;99.90
10583;DHT22;33679;51.218;6.786;2023-08-06T02:44:59;20.30;99.90
10583;DHT22;33679;51.218;6.786;2023-08-06T02:47:33;20.30;99.90
10583;DHT22;33679;51.218;6.786;2023-08-06T02:50:06;20.30;99.90
10583;DHT22;33679;51.218;6.786;2023-08-06T02:52:39;20.40;99.90
10583;DHT22;33679;51.218;6.786;2023-08-06T02:55:14;20.40;99.90
10583;DHT22;33679;51.218;6.786;2023-08-06T02:57:49;20.30;99.90
10583;DHT22;33679;51.218;6.786;2023-08-06T03:00:23;20.30;99.90
10583;DHT22;33679;51.218;6.786;2023-08-06T03:02:55;20.30;99.90
10583;DHT22;33679;51.218;6.786;2023-08-06T03:05:52;20.30;99.90
10583;DHT22;33679;51.218;6.786;2023-08-06T03:08:31;20.20;99.90
10583;DHT22;33679;51.218;6.786;2023-08-06T03:11:04;20.10;99.90
10583;DHT22;33679;51.218;6.786;2023-08-06T03:13:37;20.10;99.90
10583;DHT22;33679;51.218;6.786;2023-08-06T03:16:13;20.10;99.90
10583;DHT22;33679;51.218;6.786;2023-08-06T03:18:48;20.20;99.90
10583;DHT22;33679;51.218;6.786;2023-08-06T03:21:21;20.20;99.90
10583;DHT22;33679;51.218;6.786;2023-08-06T03:23:54;20.20;99.90
10583;DHT22;33679;51.218;6.786;2023-08-06T03:26:30;20.20;99.90
10583;DHT22;33679;51.218;6.786;2023-08-06T03:29:03;20.20;99.90
10583;DHT22;33679;51.218;6.786;2023-08-06T03:31:38;20.10;99.90
10583;DHT22;33679;51.218;6.786;2023-08-06T03:34:13;20.10;99.90
10583;DHT22;33679;51.218;6.786;2023-08-06T03:36:46;20.10;99.90
10583;DHT22;33679;51.218;6.786;2023-08-06T03:39:18;20.00;99.90
10583;DHT22;33679;51.218;6.786;2023-08-06T03:41:54;20.00;99.90
10583;DHT22;33679;51.218;6.786;2023-08-06T03:44:27;20.00;99.90
10583;DHT22;33679;51.218;6.786;2023-08-06T03:47:00;20.00;99.90
10583;DHT22;33679;51.218;6.786;2023-08-06T03:49:32;20.00;99.90
10583;DHT22;33679;51.218;6.786;2023-08-06T03:52:05;20.00;99.90
10583;DHT22;33679;51.218;6.786;2023-08-06T03:54:40;20.00;99.90
10583;DHT22;33679;51.218;6.786;2023-08-06T03:57:15;20.00;99.90
10583;DHT22;33679;51.218;6.786;2023-08-06T03:59:48;20.00;99.90
10583;DHT22;33679;51.218;6.786;2023-08-06T04:02:21;19.90;99.90
10583;DHT22;33679;51.218;6.786;2023-08-06T04:04:54;19.90;99.90
10583;DHT22;33679;51.218;6.786;2023-08-06T04:07:26;19.90;99.90
10583;DHT22;33679;51.218;6.786;2023-08-06T04:10:02;19.80;99.90
10583;DHT22;33679;51.218;6.786;2023-08-06T04:12:36;19.80;99.90
10583;DHT22;33679;51.218;6.786;2023-08-06T04:15:10;19.80;99.90
10583;DHT22;33679;51.218;6.786;2023-08-06T04:17:42;19.80;99.90
10583;DHT22;33679;51.218;6.786;2023-08-06T04:20:14;19.80;99.90
10583;DHT22;33679;51.218;6.786;2023-08-06T04:22:47;19.90;99.90
10583;DHT22;33679;51.218;6.786;2023-08-06T04:25:19;19.90;99.90
10583;DHT22;33679;51.218;6.786;2023-08-06T04:27:53;19.90;99.90
10583;DHT22;33679;51.218;6.786;2023-08-06T04:30:27;20.00;99.90
10583;DHT22;33679;51.218;6.786;2023-08-06T04:33:00;20.00;99.90
10583;DHT22;33679;51.218;6.786;2023-08-06T04:35:33;20.00;99.90
10583;DHT22;33679;51.218;6.786;2023-08-06T04:38:06;20.00;99.90
10583;DHT22;33679;51.218;6.786;2023-08-06T04:40:38;20.00;99.90
10583;DHT22;33679;51.218;6.786;2023-08-06T04:43:12;20.10;99.90
10583;DHT22;33679;51.218;6.786;2023-08-06T04:45:46;20.00;99.90
10583;DHT22;33679;51.218;6.786;2023-08-06T04:48:19;20.10;99.90
10583;DHT22;33679;51.218;6.786;2023-08-06T04:50:51;20.10;99.90
10583;DHT22;33679;51.218;6.786;2023-08-06T04:53:26;20.10;99.90
10583;DHT22;33679;51.218;6.786;2023-08-06T04:55:58;20.00;99.90
10583;DHT22;33679;51.218;6.786;2023-08-06T04:58:32;20.00;99.90
10583;DHT22;33679;51.218;6.786;2023-08-06T05:01:04;20.00;99.90
10583;DHT22;33679;51.218;6.786;2023-08-06T05:03:36;20.00;99.90
10583;DHT22;33679;51.218;6.786;2023-08-06T05:06:11;20.00;99.90
10583;DHT22;33679;51.218;6.786;2023-08-06T05:08:43;20.00;99.90
10583;DHT22;33679;51.218;6.786;2023-08-06T05:11:16;20.00;99.90
10583;DHT22;33679;51.218;6.786;2023-08-06T05:13:49;20.10;99.90
10583;DHT22;33679;51.218;6.786;2023-08-06T05:16:23;20.10;99.90
10583;DHT22;33679;51.218;6.786;2023-08-06T05:18:59;20.10;99.90
10583;DHT22;33679;51.218;6.786;2023-08-06T05:21:31;20.20;99.90
10583;DHT22;33679;51.218;6.786;2023-08-06T05:24:04;20.20;99.90
10583;DHT22;33679;51.218;6.786;2023-08-06T05:26:36;20.20;99.90
10583;DHT22;33679;51.218;6.786;2023-08-06T05:29:10;20.20;99.90
10583;DHT22;33679;51.218;6.786;2023-08-06T05:31:42;20.30;99.90
10583;DHT22;33679;51.218;6.786;2023-08-06T05:34:18;20.40;99.90
10583;DHT22;33679;51.218;6.786;2023-08-06T05:36:50;20.50;99.90
10583;DHT22;33679;51.218;6.786;2023-08-06T05:39:23;20.60;99.90
10583;DHT22;33679;51.218;6.786;2023-08-06T05:41:56;20.70;99.90
10583;DHT22;33679;51.218;6.786;2023-08-06T05:44:30;20.80;99.90
10583;DHT22;33679;51.218;6.786;2023-08-06T05:47:05;20.90;99.90
10583;DHT22;33679;51.218;6.786;2023-08-06T05:49:37;21.00;99.90
10583;DHT22;33679;51.218;6.786;2023-08-06T05:52:10;21.10;99.90
10583;DHT22;33679;51.218;6.786;2023-08-06T05:54:43;21.10;99.90
10583;DHT22;33679;51.218;6.786;2023-08-06T05:57:15;21.20;99.90
10583;DHT22;33679;51.218;6.786;2023-08-06T05:59:49;21.20;99.90
10583;DHT22;33679;51.218;6.786;2023-08-06T06:02:23;21.20;99.90
10583;DHT22;33679;51.218;6.786;2023-08-06T06:04:55;21.30;99.90
10583;DHT22;33679;51.218;6.786;2023-08-06T06:07:28;21.40;99.90
10583;DHT22;33679;51.218;6.786;2023-08-06T06:10:00;21.40;99.90
10583;DHT22;33679;51.218;6.786;2023-08-06T06:12:33;21.50;99.90
10583;DHT22;33679;51.218;6.786;2023-08-06T06:15:09;21.60;99.90
10583;DHT22;33679;51.218;6.786;2023-08-06T06:17:41;21.70;99.90
10583;DHT22;33679;51.218;6.786;2023-08-06T06:20:14;21.70;99.90
10583;DHT22;33679;51.218;6.786;2023-08-06T06:22:48;21.80;99.90
10583;DHT22;33679;51.218;6.786;2023-08-06T06:25:20;21.90;99.90
10583;DHT22;33679;51.218;6.786;2023-08-06T06:27:55;22.00;99.90
10583;DHT22;33679;51.218;6.786;2023-08-06T06:30:31;22.10;99.90
10583;DHT22;33679;51.218;6.786;2023-08-06T06:33:03;22.10;99.90
10583;DHT22;33679;51.218;6.786;2023-08-06T06:35:36;22.20;99.90
10583;DHT22;33679;51.218;6.786;2023-08-06T06:38:09;22.20;99.90
10583;DHT22;33679;51.218;6.786;2023-08-06T06:40:46;22.20;99.90
10583;DHT22;33679;51.218;6.786;2023-08-06T06:43:26;22.30;99.90
10583;DHT22;33679;51.218;6.786;2023-08-06T06:46:00;22.20;99.90
10583;DHT22;33679;51.218;6.786;2023-08-06T06:48:33;22.20;99.90
10583;DHT22;33679;51.218;6.786;2023-08-06T06:51:05;22.20;99.90
10583;DHT22;33679;51.218;6.786;2023-08-06T06:53:38;22.20;99.90
10583;DHT22;33679;51.218;6.786;2023-08-06T06:56:10;22.30;99.90
10583;DHT22;33679;51.218;6.786;2023-08-06T06:58:43;22.20;99.90
10583;DHT22;33679;51.218;6.786;2023-08-06T07:01:16;22.30;99.90
10583;DHT22;33679;51.218;6.786;2023-08-06T07:03:51;22.30;99.90
10583;DHT22;33679;51.218;6.786;2023-08-06T07:06:23;22.40;99.90
10583;DHT22;33679;51.218;6.786;2023-08-06T07:08:55;22.40;99.90
10583;DHT22;33679;51.218;6.786;2023-08-06T07:11:28;22.40;99.90
10583;DHT22;33679;51.218;6.786;2023-08-06T07:14:00;22.50;99.90
10583;DHT22;33679;51.218;6.786;2023-08-06T07:16:34;22.50;99.90
10583;DHT22;33679;51.218;6.786;2023-08-06T07:19:06;22.50;99.90
10583;DHT22;33679;51.218;6.786;2023-08-06T07:21:38;22.40;99.90
10583;DHT22;33679;51.218;6.786;2023-08-06T07:24:13;22.50;99.90
10583;DHT22;33679;51.218;6.786;2023-08-06T07:26:54;22.50;99.90
10583;DHT22;33679;51.218;6.786;2023-08-06T07:29:27;22.60;99.90
10583;DHT22;33679;51.218;6.786;2023-08-06T07:32:12;22.60;99.90
10583;DHT22;33679;51.218;6.786;2023-08-06T07:34:47;22.60;99.90
10583;DHT22;33679;51.218;6.786;2023-08-06T07:37:20;22.70;99.90
10583;DHT22;33679;51.218;6.786;2023-08-06T07:39:55;22.80;99.90
10583;DHT22;33679;51.218;6.786;2023-08-06T07:42:29;22.90;99.90
10583;DHT22;33679;51.218;6.786;2023-08-06T07:45:09;22.90;99.90
10583;DHT22;33679;51.218;6.786;2023-08-06T07:47:43;22.90;99.90
10583;DHT22;33679;51.218;6.786;2023-08-06T07:50:16;22.90;99.90
10583;DHT22;33679;51.218;6.786;2023-08-06T07:52:49;23.00;99.90
10583;DHT22;33679;51.218;6.786;2023-08-06T07:55:31;23.00;99.90
10583;DHT22;33679;51.218;6.786;2023-08-06T07:58:03;22.90;99.90
10583;DHT22;33679;51.218;6.786;2023-08-06T08:00:36;22.80;99.90
10583;DHT22;33679;51.218;6.786;2023-08-06T08:03:10;22.70;99.90
10583;DHT22;33679;51.218;6.786;2023-08-06T08:05:43;22.70;99.90
10583;DHT22;33679;51.218;6.786;2023-08-06T08:08:18;22.70;99.90
10583;DHT22;33679;51.218;6.786;2023-08-06T08:10:50;22.70;99.90
10583;DHT22;33679;51.218;6.786;2023-08-06T08:13:23;22.70;99.90
10583;DHT22;33679;51.218;6.786;2023-08-06T08:16:00;22.80;99.90
10583;DHT22;33679;51.218;6.786;2023-08-06T08:18:37;22.80;99.90
10583;DHT22;33679;51.218;6.786;2023-08-06T08:21:10;22.70;99.90
10583;DHT22;33679;51.218;6.786;2023-08-06T08:23:45;22.80;99.90
10583;DHT22;33679;51.218;6.786;2023-08-06T08:26:21;22.70;99.90
10583;DHT22;33679;51.218;6.786;2023-08-06T08:29:01;22.80;99.90
10583;DHT22;33679;51.218;6.786;2023-08-06T08:32:10;22.80;99.90
10583;DHT22;33679;51.218;6.786;2023-08-06T08:34:51;22.80;99.90
10583;DHT22;33679;51.218;6.786;2023-08-06T08:37:26;22.80;99.90
10583;DHT22;33679;51.218;6.786;2023-08-06T08:40:02;22.70;99.90
10583;DHT22;33679;51.218;6.786;2023-08-06T08:42:36;22.70;99.90
10583;DHT22;33679;51.218;6.786;2023-08-06T08:45:12;22.80;99.90
10583;DHT22;33679;51.218;6.786;2023-08-06T08:47:46;22.80;99.90
10583;DHT22;33679;51.218;6.786;2023-08-06T08:50:21;22.90;99.90
10583;DHT22;33679;51.218;6.786;2023-08-06T08:52:54;22.90;99.90
10583;DHT22;33679;51.218;6.786;2023-08-06T08:55:28;22.90;99.90
10583;DHT22;33679;51.218;6.786;2023-08-06T08:58:01;22.80;99.90
10583;DHT22;33679;51.218;6.786;2023-08-06T09:00:36;23.00;99.90
10583;DHT22;33679;51.218;6.786;2023-08-06T09:03:08;23.10;99.90
10583;DHT22;33679;51.218;6.786;2023-08-06T09:05:44;23.10;99.90
10583;DHT22;33679;51.218;6.786;2023-08-06T09:08:21;23.20;99.90
10583;DHT22;33679;51.218;6.786;2023-08-06T09:10:56;23.30;99.90
10583;DHT22;33679;51.218;6.786;2023-08-06T09:13:28;23.40;99.90
10583;DHT22;33679;51.218;6.786;2023-08-06T09:16:02;23.30;99.90
10583;DHT22;33679;51.218;6.786;2023-08-06T09:18:39;23.40;99.90
10583;DHT22;33679;51.218;6.786;2023-08-06T09:21:15;23.40;99.90
10583;DHT22;33679;51.218;6.786;2023-08-06T09:23:48;23.40;99.90
10583;DHT22;33679;51.218;6.786;2023-08-06T09:26:40;23.40;99.90
10583;DHT22;33679;51.218;6.786;2023-08-06T09:29:17;23.60;99.90
10583;DHT22;33679;51.218;6.786;2023-08-06T09:31:51;23.70;99.90
10583;DHT22;33679;51.218;6.786;2023-08-06T09:34:23;23.60;99.90
10583;DHT22;33679;51.218;6.786;2023-08-06T09:36:57;23.50;99.90
10583;DHT22;33679;51.218;6.786;2023-08-06T09:39:30;23.30;99.90
10583;DHT22;33679;51.218;6.786;2023-08-06T09:42:03;22.90;99.90
10583;DHT22;33679;51.218;6.786;2023-08-06T09:44:36;22.60;99.90
10583;DHT22;33679;51.218;6.786;2023-08-06T09:47:12;22.40;99.90
10583;DHT22;33679;51.218;6.786;2023-08-06T09:49:48;22.20;99.90
10583;DHT22;33679;51.218;6.786;2023-08-06T09:52:26;22.00;99.90
10583;DHT22;33679;51.218;6.786;2023-08-06T09:54:59;21.90;99.90
10583;DHT22;33679;51.218;6.786;2023-08-06T09:57:34;21.70;99.90
10583;DHT22;33679;51.218;6.786;2023-08-06T10:00:08;21.50;99.90
10583;DHT22;33679;51.218;6.786;2023-08-06T10:02:45;21.40;99.90
10583;DHT22;33679;51.218;6.786;2023-08-06T10:05:21;21.20;99.90
10583;DHT22;33679;51.218;6.786;2023-08-06T10:07:59;21.10;99.90
10583;DHT22;33679;51.218;6.786;2023-08-06T10:10:34;21.00;99.90
10583;DHT22;33679;51.218;6.786;2023-08-06T10:13:08;21.00;99.90
10583;DHT22;33679;51.218;6.786;2023-08-06T10:15:42;20.90;99.90
10583;DHT22;33679;51.218;6.786;2023-08-06T10:18:16;20.80;99.90
10583;DHT22;33679;51.218;6.786;2023-08-06T10:20:52;20.80;99.90
10583;DHT22;33679;51.218;6.786;2023-08-06T10:23:35;20.70;99.90
10583;DHT22;33679;51.218;6.786;2023-08-06T10:26:09;20.60;99.90
10583;DHT22;33679;51.218;6.786;2023-08-06T10:28:42;20.40;99.90
10583;DHT22;33679;51.218;6.786;2023-08-06T10:31:15;20.30;99.90
10583;DHT22;33679;51.218;6.786;2023-08-06T10:33:48;20.20;99.90
10583;DHT22;33679;51.218;6.786;2023-08-06T10:36:20;20.10;99.90
10583;DHT22;33679;51.218;6.786;2023-08-06T10:38:58;20.10;99.90
10583;DHT22;33679;51.218;6.786;2023-08-06T10:41:30;20.00;99.90
10583;DHT22;33679;51.218;6.786;2023-08-06T10:44:06;19.90;99.90
10583;DHT22;33679;51.218;6.786;2023-08-06T10:46:41;19.80;99.90
10583;DHT22;33679;51.218;6.786;2023-08-06T10:49:17;19.70;99.90
10583;DHT22;33679;51.218;6.786;2023-08-06T10:51:50;19.60;99.90
10583;DHT22;33679;51.218;6.786;2023-08-06T10:54:24;19.50;99.90
10583;DHT22;33679;51.218;6.786;2023-08-06T10:56:57;19.50;99.90
10583;DHT22;33679;51.218;6.786;2023-08-06T10:59:30;19.40;99.90
10583;DHT22;33679;51.218;6.786;2023-08-06T11:02:03;19.40;99.90
10583;DHT22;33679;51.218;6.786;2023-08-06T11:04:36;19.40;99.90
10583;DHT22;33679;51.218;6.786;2023-08-06T11:07:08;19.40;99.90
10583;DHT22;33679;51.218;6.786;2023-08-06T11:09:42;19.40;99.90
10583;DHT22;33679;51.218;6.786;2023-08-06T11:12:18;19.40;99.90
10583;DHT22;33679;51.218;6.786;2023-08-06T11:14:50;19.40;99.90
10583;DHT22;33679;51.218;6.786;2023-08-06T11:17:23;19.40;99.90
10583;DHT22;33679;51.218;6.786;2023-08-06T11:19:59;19.50;99.90
10583;DHT22;33679;51.218;6.786;2023-08-06T11:22:32;19.50;99.90
10583;DHT22;33679;51.218;6.786;2023-08-06T11:25:13;19.60;99.90
10583;DHT22;33679;51.218;6.786;2023-08-06T11:27:45;19.60;99.90
10583;DHT22;33679;51.218;6.786;2023-08-06T11:30:18;19.60;99.90
10583;DHT22;33679;51.218;6.786;2023-08-06T11:32:51;19.50;99.90
10583;DHT22;33679;51.218;6.786;2023-08-06T11:35:23;19.50;99.90
10583;DHT22;33679;51.218;6.786;2023-08-06T11:37:55;19.50;99.90
10583;DHT22;33679;51.218;6.786;2023-08-06T11:40:31;19.50;99.90
10583;DHT22;33679;51.218;6.786;2023-08-06T11:43:05;19.50;99.90
10583;DHT22;33679;51.218;6.786;2023-08-06T11:45:38;19.50;99.90
10583;DHT22;33679;51.218;6.786;2023-08-06T11:48:10;19.50;99.90
10583;DHT22;33679;51.218;6.786;2023-08-06T11:50:43;19.60;99.90
10583;DHT22;33679;51.218;6.786;2023-08-06T11:53:17;19.60;99.90
10583;DHT22;33679;51.218;6.786;2023-08-06T11:55:51;19.80;99.90
10583;DHT22;33679;51.218;6.786;2023-08-06T11:58:25;19.70;99.90
10583;DHT22;33679;51.218;6.786;2023-08-06T12:01:00;19.70;99.90
10583;DHT22;33679;51.218;6.786;2023-08-06T12:03:41;19.60;99.90
10583;DHT22;33679;51.218;6.786;2023-08-06T12:06:14;19.60;99.90
10583;DHT22;33679;51.218;6.786;2023-08-06T12:08:49;19.60;99.90
10583;DHT22;33679;51.218;6.786;2023-08-06T12:11:24;19.50;99.90
10583;DHT22;33679;51.218;6.786;2023-08-06T12:13:56;19.50;99.90
10583;DHT22;33679;51.218;6.786;2023-08-06T12:16:28;19.50;99.90
10583;DHT22;33679;51.218;6.786;2023-08-06T12:19:01;19.40;99.90
10583;DHT22;33679;51.218;6.786;2023-08-06T12:21:35;19.40;99.90
10583;DHT22;33679;51.218;6.786;2023-08-06T12:24:07;19.50;99.90
10583;DHT22;33679;51.218;6.786;2023-08-06T12:26:42;19.50;99.90
10583;DHT22;33679;51.218;6.786;2023-08-06T12:29:14;19.50;99.90
10583;DHT22;33679;51.218;6.786;2023-08-06T12:31:46;19.50;99.90
10583;DHT22;33679;51.218;6.786;2023-08-06T12:34:22;19.50;99.90
10583;DHT22;33679;51.218;6.786;2023-08-06T12:36:55;19.50;99.90
10583;DHT22;33679;51.218;6.786;2023-08-06T12:39:28;19.50;99.90
10583;DHT22;33679;51.218;6.786;2023-08-06T12:42:05;19.50;99.90
10583;DHT22;33679;51.218;6.786;2023-08-06T12:44:37;19.50;99.90
10583;DHT22;33679;51.218;6.786;2023-08-06T12:47:10;19.60;99.90
10583;DHT22;33679;51.218;6.786;2023-08-06T12:49:43;19.50;99.90
10583;DHT22;33679;51.218;6.786;2023-08-06T12:52:16;19.50;99.90
10583;DHT22;33679;51.218;6.786;2023-08-06T12:54:53;19.50;99.90
10583;DHT22;33679;51.218;6.786;2023-08-06T12:57:27;19.60;99.90
10583;DHT22;33679;51.218;6.786;2023-08-06T13:00:00;19.60;99.90
10583;DHT22;33679;51.218;6.786;2023-08-06T13:02:33;19.60;99.90
10583;DHT22;33679;51.218;6.786;2023-08-06T13:05:06;19.60;99.90
10583;DHT22;33679;51.218;6.786;2023-08-06T13:07:40;19.60;99.90
10583;DHT22;33679;51.218;6.786;2023-08-06T13:10:12;19.70;99.90
10583;DHT22;33679;51.218;6.786;2023-08-06T13:12:47;19.70;99.90
10583;DHT22;33679;51.218;6.786;2023-08-06T13:15:20;19.70;99.90
10583;DHT22;33679;51.218;6.786;2023-08-06T13:17:53;19.70;99.90
10583;DHT22;33679;51.218;6.786;2023-08-06T13:20:30;19.70;99.90
10583;DHT22;33679;51.218;6.786;2023-08-06T13:23:03;19.70;99.90
10583;DHT22;33679;51.218;6.786;2023-08-06T13:25:37;19.70;99.90
10583;DHT22;33679;51.218;6.786;2023-08-06T13:28:11;19.70;99.90
10583;DHT22;33679;51.218;6.786;2023-08-06T13:30:47;19.80;99.90
10583;DHT22;33679;51.218;6.786;2023-08-06T13:33:20;19.80;99.90
10583;DHT22;33679;51.218;6.786;2023-08-06T13:35:52;19.90;99.90
10583;DHT22;33679;51.218;6.786;2023-08-06T13:38:27;20.00;99.90
10583;DHT22;33679;51.218;6.786;2023-08-06T13:40:59;20.10;99.90
10583;DHT22;33679;51.218;6.786;2023-08-06T13:43:33;20.10;99.90
10583;DHT22;33679;51.218;6.786;2023-08-06T13:46:05;20.10;99.90
10583;DHT22;33679;51.218;6.786;2023-08-06T13:48:38;20.00;99.90
10583;DHT22;33679;51.218;6.786;2023-08-06T13:51:11;20.10;99.90
10583;DHT22;33679;51.218;6.786;2023-08-06T13:53:44;20.10;99.90
10583;DHT22;33679;51.218;6.786;2023-08-06T13:56:17;20.10;99.90
10583;DHT22;33679;51.218;6.786;2023-08-06T13:58:51;20.10;99.90
10583;DHT22;33679;51.218;6.786;2023-08-06T14:01:23;20.10;99.90
10583;DHT22;33679;51.218;6.786;2023-08-06T14:03:59;20.30;99.90
10583;DHT22;33679;51.218;6.786;2023-08-06T14:06:32;20.30;99.90
10583;DHT22;33679;51.218;6.786;2023-08-06T14:09:11;20.30;99.90
10583;DHT22;33679;51.218;6.786;2023-08-06T14:11:51;20.50;99.90
10583;DHT22;33679;51.218;6.786;2023-08-06T14:14:28;20.60;99.90
10583;DHT22;33679;51.218;6.786;2023-08-06T14:17:01;20.60;99.90
10583;DHT22;33679;51.218;6.786;2023-08-06T14:19:34;20.60;99.90
10583;DHT22;33679;51.218;6.786;2023-08-06T14:22:16;20.80;99.90
10583;DHT22;33679;51.218;6.786;2023-08-06T14:24:49;20.80;99.90
10583;DHT22;33679;51.218;6.786;2023-08-06T14:27:27;20.80;99.90
10583;DHT22;33679;51.218;6.786;2023-08-06T14:30:06;20.80;99.90
10583;DHT22;33679;51.218;6.786;2023-08-06T14:32:40;20.90;99.90
10583;DHT22;33679;51.218;6.786;2023-08-06T14:35:16;20.90;99.90
10583;DHT22;33679;51.218;6.786;2023-08-06T14:37:49;21.00;99.90
10583;DHT22;33679;51.218;6.786;2023-08-06T14:40:21;21.00;99.90
10583;DHT22;33679;51.218;6.786;2023-08-06T14:42:54;21.00;99.90
10583;DHT22;33679;51.218;6.786;2023-08-06T14:45:28;21.00;99.90
10583;DHT22;33679;51.218;6.786;2023-08-06T14:48:02;21.10;99.90
10583;DHT22;33679;51.218;6.786;2023-08-06T14:50:35;21.10;99.90
10583;DHT22;33679;51.218;6.786;2023-08-06T14:53:07;21.00;99.90
10583;DHT22;33679;51.218;6.786;2023-08-06T14:55:41;21.00;99.90
10583;DHT22;33679;51.218;6.786;2023-08-06T14:58:14;20.90;99.90
10583;DHT22;33679;51.218;6.786;2023-08-06T15:00:48;20.90;99.90
10583;DHT22;33679;51.218;6.786;2023-08-06T15:03:21;20.90;99.90
10583;DHT22;33679;51.218;6.786;2023-08-06T15:05:54;20.90;99.90
10583;DHT22;33679;51.218;6.786;2023-08-06T15:08:29;21.00;99.90
10583;DHT22;33679;51.218;6.786;2023-08-06T15:11:02;20.90;99.90
10583;DHT22;33679;51.218;6.786;2023-08-06T15:13:35;20.90;99.90
10583;DHT22;33679;51.218;6.786;2023-08-06T15:16:08;20.80;99.90
10583;DHT22;33679;51.218;6.786;2023-08-06T15:18:48;20.70;99.90
10583;DHT22;33679;51.218;6.786;2023-08-06T15:21:27;20.60;99.90
10583;DHT22;33679;51.218;6.786;2023-08-06T15:24:04;20.60;99.90
10583;DHT22;33679;51.218;6.786;2023-08-06T15:26:39;20.60;99.90
10583;DHT22;33679;51.218;6.786;2023-08-06T15:29:11;20.70;99.90
10583;DHT22;33679;51.218;6.786;2023-08-06T15:31:45;20.70;99.90
10583;DHT22;33679;51.218;6.786;2023-08-06T15:34:18;20.60;99.90
10583;DHT22;33679;51.218;6.786;2023-08-06T15:36:51;20.40;99.90
10583;DHT22;33679;51.218;6.786;2023-08-06T15:39:25;20.20;99.90
10583;DHT22;33679;51.218;6.786;2023-08-06T15:41:57;20.10;99.90
10583;DHT22;33679;51.218;6.786;2023-08-06T15:44:30;20.00;99.90
10583;DHT22;33679;51.218;6.786;2023-08-06T15:47:07;20.00;99.90
10583;DHT22;33679;51.218;6.786;2023-08-06T15:49:39;19.90;99.90
10583;DHT22;33679;51.218;6.786;2023-08-06T15:52:12;19.90;99.90
10583;DHT22;33679;51.218;6.786;2023-08-06T15:54:44;19.80;99.90
10583;DHT22;33679;51.218;6.786;2023-08-06T15:57:19;19.80;99.90
10583;DHT22;33679;51.218;6.786;2023-08-06T15:59:52;19.80;99.90
10583;DHT22;33679;51.218;6.786;2023-08-06T16:02:26;19.80;99.90
10583;DHT22;33679;51.218;6.786;2023-08-06T16:05:03;19.70;99.90
10583;DHT22;33679;51.218;6.786;2023-08-06T16:07:36;19.70;99.90
10583;DHT22;33679;51.218;6.786;2023-08-06T16:10:09;19.70;99.90
10583;DHT22;33679;51.218;6.786;2023-08-06T16:12:47;19.70;99.90